createdAt,value
2023-03-16T00:00:59.072Z,4.6
2023-03-16T00:03:59.075Z,4.6
2023-03-16T00:06:59.103Z,4.6
2023-03-16T00:09:59.077Z,4.6
2023-03-16T00:12:59.081Z,4.6
2023-03-16T00:15:59.146Z,4.6
2023-03-16T00:18:59.087Z,4.6
2023-03-16T00:21:59.088Z,4.5
2023-03-16T00:24:59.121Z,4.5
2023-03-16T00:27:59.096Z,4.5
2023-03-16T00:30:59.211Z,4.5
2023-03-16T00:33:59.099Z,4.5
2023-03-16T00:36:59.123Z,4.5
2023-03-16T00:39:59.123Z,4.5
2023-03-16T00:42:59.162Z,4.5
2023-03-16T00:45:59.241Z,4.5
2023-03-16T00:48:59.159Z,4.5
2023-03-16T00:51:59.171Z,4.5
2023-03-16T00:54:59.182Z,4.4
2023-03-16T00:57:59.188Z,4.4
2023-03-16T01:00:59.266Z,4.4
2023-03-16T01:03:59.198Z,4.4
2023-03-16T01:06:59.210Z,4.4
2023-03-16T01:09:59.232Z,4.4
2023-03-16T01:12:59.218Z,4.4
2023-03-16T01:15:59.214Z,4.4
2023-03-16T01:18:59.242Z,4.4
2023-03-16T01:21:59.323Z,4.4
2023-03-16T01:24:59.239Z,4.4
2023-03-16T01:27:59.249Z,4.4
2023-03-16T01:30:59.283Z,4.4
2023-03-16T01:33:59.248Z,4.4
2023-03-16T01:36:59.277Z,4.4
2023-03-16T01:39:59.266Z,4.4
2023-03-16T01:42:59.509Z,4.4
2023-03-16T01:45:59.296Z,4.4
2023-03-16T01:48:59.282Z,4.4
2023-03-16T01:51:59.283Z,4.4
2023-03-16T01:54:59.313Z,4.4
2023-03-16T01:57:59.296Z,4.4
2023-03-16T02:00:59.348Z,4.4
2023-03-16T02:03:59.360Z,4.3
2023-03-16T02:06:59.306Z,4.3
2023-03-16T02:09:59.313Z,4.3
2023-03-16T02:12:59.347Z,4.3
2023-03-16T02:15:59.374Z,4.3
2023-03-16T02:18:59.328Z,4.3
2023-03-16T02:21:59.340Z,4.3
2023-03-16T02:24:59.339Z,4.3
2023-03-16T02:27:59.343Z,4.3
2023-03-16T02:30:59.432Z,4.3
2023-03-16T02:33:59.357Z,4.3
2023-03-16T02:36:59.367Z,4.3
2023-03-16T02:39:59.360Z,4.2
2023-03-16T02:42:59.367Z,4.2
2023-03-16T02:45:59.425Z,4.2
2023-03-16T02:48:59.411Z,4.2
2023-03-16T02:51:59.376Z,4.2
2023-03-16T02:54:59.371Z,4.2
2023-03-16T02:57:59.386Z,4.2
2023-03-16T03:00:59.389Z,4.2
2023-03-16T03:03:59.392Z,4.2
2023-03-16T03:06:59.425Z,4.2
2023-03-16T03:09:59.402Z,4.2
2023-03-16T03:12:59.400Z,4.2
2023-03-16T03:15:59.484Z,4.2
2023-03-16T03:18:59.416Z,4.2
2023-03-16T03:21:59.423Z,4.2
2023-03-16T03:24:59.476Z,4.2
2023-03-16T03:27:59.472Z,4.2
2023-03-16T03:30:59.437Z,4.2
2023-03-16T03:33:59.444Z,4.2
2023-03-16T03:36:59.449Z,4.2
2023-03-16T03:39:59.447Z,4.2
2023-03-16T03:42:59.488Z,4.2
2023-03-16T03:45:59.570Z,4.2
2023-03-16T03:48:59.458Z,4.1
2023-03-16T03:51:59.474Z,4.2
2023-03-16T03:54:59.460Z,4.1
2023-03-16T03:57:59.472Z,4.1
2023-03-16T04:00:59.497Z,4.1
2023-03-16T04:03:59.476Z,4.1
2023-03-16T04:06:59.481Z,4.1
2023-03-16T04:09:59.481Z,4.1
2023-03-16T04:12:59.514Z,4.1
2023-03-16T04:15:59.493Z,4.1
2023-03-16T04:18:59.520Z,4.1
2023-03-16T04:21:59.499Z,4.1
2023-03-16T04:24:59.501Z,4.1
2023-03-16T04:27:59.520Z,4.1
2023-03-16T04:30:59.537Z,4.1
2023-03-16T04:33:59.521Z,4.1
2023-03-16T04:36:59.547Z,4.1
2023-03-16T04:39:59.526Z,4.1
2023-03-16T04:42:59.535Z,4.1
2023-03-16T04:45:59.586Z,4.1
2023-03-16T04:48:59.549Z,4.1
2023-03-16T04:51:59.556Z,4.1
2023-03-16T04:54:59.617Z,4.1
2023-03-16T04:57:59.547Z,4.1
2023-03-16T05:00:59.555Z,4
2023-03-16T05:03:59.855Z,4
2023-03-16T05:06:59.560Z,4
2023-03-16T05:09:59.557Z,4
2023-03-16T05:12:59.590Z,4
2023-03-16T05:15:59.663Z,4
2023-03-16T05:18:59.621Z,4
2023-03-16T05:21:59.579Z,4
2023-03-16T05:24:59.587Z,4
2023-03-16T05:27:59.602Z,4
2023-03-16T05:30:59.692Z,4
2023-03-16T05:33:59.601Z,4
2023-03-16T05:36:59.605Z,3.9
2023-03-16T05:39:59.609Z,3.9
2023-03-16T05:42:59.625Z,3.9
2023-03-16T05:45:59.624Z,3.9
2023-03-16T05:48:59.651Z,3.9
2023-03-16T05:51:59.634Z,3.9
2023-03-16T05:54:59.646Z,3.9
2023-03-16T05:57:59.642Z,3.9
2023-03-16T06:00:59.652Z,3.9
2023-03-16T06:03:59.736Z,3.9
2023-03-16T06:06:59.699Z,3.9
2023-03-16T06:09:59.678Z,3.9
2023-03-16T06:13:00.032Z,3.9
2023-03-16T06:15:59.725Z,3.9
2023-03-16T06:19:00.040Z,3.9
2023-03-16T06:21:59.786Z,3.9
2023-03-16T06:24:59.722Z,3.9
2023-03-16T06:27:59.704Z,3.9
2023-03-16T06:30:59.718Z,3.9
2023-03-16T06:33:59.702Z,3.9
2023-03-16T06:36:59.710Z,3.9
2023-03-16T06:39:59.718Z,3.9
2023-03-16T06:42:59.746Z,3.9
2023-03-16T06:45:59.777Z,3.8
2023-03-16T06:48:59.732Z,3.8
2023-03-16T06:51:59.733Z,3.8
2023-03-16T06:54:59.741Z,3.8
2023-03-16T06:57:59.781Z,3.8
2023-03-16T07:00:59.814Z,3.8
2023-03-16T07:03:59.825Z,3.8
2023-03-16T07:06:59.755Z,3.8
2023-03-16T07:09:59.756Z,3.8
2023-03-16T07:12:59.768Z,3.8
2023-03-16T07:15:59.759Z,3.8
2023-03-16T07:18:59.795Z,3.7
2023-03-16T07:21:59.782Z,3.8
2023-03-16T07:24:59.786Z,3.8
2023-03-16T07:27:59.779Z,3.7
2023-03-16T07:31:03.639Z,3.7
2023-03-16T07:33:59.787Z,3.7
2023-03-16T07:36:59.821Z,3.7
2023-03-16T07:39:59.798Z,3.7
2023-03-16T07:42:59.801Z,3.7
2023-03-16T07:45:59.855Z,3.7
2023-03-16T07:48:59.805Z,3.7
2023-03-16T07:51:59.818Z,3.7
2023-03-16T07:54:59.859Z,3.7
2023-03-16T07:57:59.824Z,3.7
2023-03-16T08:00:59.834Z,3.7
2023-03-16T08:03:59.884Z,3.7
2023-03-16T08:06:59.828Z,3.7
2023-03-16T08:09:59.829Z,3.7
2023-03-16T08:12:59.898Z,3.7
2023-03-16T08:15:59.874Z,3.7
2023-03-16T08:18:59.861Z,3.7
2023-03-16T08:22:01.648Z,3.7
2023-03-16T08:24:59.865Z,3.7
2023-03-16T08:27:59.862Z,3.7
2023-03-16T08:31:00.038Z,3.7
2023-03-16T08:33:59.865Z,3.7
2023-03-16T08:36:59.870Z,3.7
2023-03-16T08:39:59.877Z,3.7
2023-03-16T08:42:59.879Z,3.6
2023-03-16T08:45:59.910Z,3.6
2023-03-16T08:48:59.916Z,3.6
2023-03-16T08:51:59.891Z,3.6
2023-03-16T08:55:03.651Z,3.6
2023-03-16T08:57:59.893Z,3.6
2023-03-16T09:00:59.893Z,3.6
2023-03-16T09:03:59.959Z,3.6
2023-03-16T09:07:08.193Z,3.6
2023-03-16T09:09:59.915Z,3.6
2023-03-16T09:12:59.924Z,3.6
2023-03-16T09:16:00.010Z,3.6
2023-03-16T09:18:59.939Z,3.6
2023-03-16T09:21:59.942Z,3.6
2023-03-16T09:24:59.966Z,3.6
2023-03-16T09:27:59.949Z,3.6
2023-03-16T09:30:59.946Z,3.6
2023-03-16T09:33:59.948Z,3.6
2023-03-16T09:36:59.952Z,3.6
2023-03-16T09:40:06.471Z,3.6
2023-03-16T09:42:59.980Z,3.6
2023-03-16T09:46:00.081Z,3.6
2023-03-16T09:48:59.960Z,3.6
2023-03-16T09:52:00.680Z,3.6
2023-03-16T09:54:59.968Z,3.6
2023-03-16T09:57:59.970Z,3.6
2023-03-16T10:01:00.098Z,3.6
2023-03-16T10:04:00.033Z,3.6
2023-03-16T10:06:59.981Z,3.6
2023-03-16T10:09:59.988Z,3.6
2023-03-16T10:13:00.205Z,3.6
2023-03-16T10:15:59.997Z,3.5
2023-03-16T10:19:00.039Z,3.5
2023-03-16T10:22:00.003Z,3.6
2023-03-16T10:25:00.034Z,3.5
2023-03-16T10:28:00.013Z,3.5
2023-03-16T10:31:00.014Z,3.5
2023-03-16T10:34:00.024Z,3.5
2023-03-16T10:37:00.098Z,3.5
2023-03-16T10:40:00.028Z,3.5
2023-03-16T10:43:00.029Z,3.5
2023-03-16T10:46:00.109Z,3.5
2023-03-16T10:49:00.063Z,3.5
2023-03-16T10:52:00.055Z,3.5
2023-03-16T10:55:00.093Z,3.5
2023-03-16T10:58:00.077Z,3.5
2023-03-16T11:01:00.168Z,3.5
2023-03-16T11:04:00.079Z,3.5
2023-03-16T11:07:00.135Z,3.5
2023-03-16T11:10:00.122Z,3.6
2023-03-16T11:13:02.371Z,3.6
2023-03-16T11:16:00.113Z,3.6
2023-03-16T11:19:00.164Z,3.6
2023-03-16T11:22:00.107Z,3.6
2023-03-16T11:25:00.128Z,3.6
2023-03-16T11:28:00.110Z,3.6
2023-03-16T11:31:00.197Z,3.6
2023-03-16T11:34:00.314Z,3.6
2023-03-16T11:37:00.120Z,3.6
2023-03-16T11:40:00.164Z,3.6
2023-03-16T11:43:00.157Z,3.6
2023-03-16T11:46:00.200Z,3.6
2023-03-16T11:49:00.244Z,3.6
2023-03-16T11:52:00.148Z,3.6
2023-03-16T11:55:00.146Z,3.6
2023-03-16T11:58:00.145Z,3.6
2023-03-16T12:01:00.171Z,3.6
2023-03-16T12:04:00.204Z,3.6
2023-03-16T12:07:00.183Z,3.6
2023-03-16T12:10:00.182Z,3.6
2023-03-16T12:13:00.162Z,3.6
2023-03-16T12:16:00.228Z,3.6
2023-03-16T12:19:00.178Z,3.6
2023-03-16T12:22:00.172Z,3.6
2023-03-16T12:25:00.208Z,3.6
2023-03-16T12:28:00.192Z,3.6
2023-03-16T12:31:00.190Z,3.7
2023-03-16T12:34:00.191Z,3.7
2023-03-16T12:37:00.190Z,3.7
2023-03-16T12:40:00.207Z,3.7
2023-03-16T12:43:00.233Z,3.7
2023-03-16T12:46:00.312Z,3.7
2023-03-16T12:49:00.209Z,3.7
2023-03-16T12:52:00.216Z,3.7
2023-03-16T12:55:00.219Z,3.7
2023-03-16T12:58:00.232Z,3.7
2023-03-16T13:01:00.448Z,3.7
2023-03-16T13:04:00.274Z,3.7
2023-03-16T13:07:00.245Z,3.7
2023-03-16T13:10:00.245Z,3.7
2023-03-16T13:13:00.259Z,3.7
2023-03-16T13:16:00.260Z,3.8
2023-03-16T13:19:00.286Z,3.8
2023-03-16T13:22:00.258Z,3.8
2023-03-16T13:25:00.266Z,3.8
2023-03-16T13:28:00.263Z,3.8
2023-03-16T13:31:00.322Z,3.9
2023-03-16T13:34:00.572Z,3.9
2023-03-16T13:37:00.299Z,3.9
2023-03-16T13:40:00.275Z,3.9
2023-03-16T13:43:00.280Z,3.9
2023-03-16T13:46:00.336Z,3.9
2023-03-16T13:49:00.294Z,3.9
2023-03-16T13:52:00.292Z,3.9
2023-03-16T13:55:00.332Z,3.9
2023-03-16T13:58:00.301Z,3.9
2023-03-16T14:01:00.307Z,3.9
2023-03-16T14:04:00.303Z,4
2023-03-16T14:07:00.324Z,4
2023-03-16T14:10:00.313Z,4
2023-03-16T14:13:00.339Z,4
2023-03-16T14:16:00.464Z,4
2023-03-16T14:19:00.318Z,4
2023-03-16T14:22:00.314Z,4.1
2023-03-16T14:25:00.321Z,4.1
2023-03-16T14:28:00.323Z,4.1
2023-03-16T14:31:00.369Z,4.1
2023-03-16T14:34:00.331Z,4.1
2023-03-16T14:37:00.336Z,4.1
2023-03-16T14:40:00.354Z,4.1
2023-03-16T14:43:00.347Z,4.1
2023-03-16T14:46:00.393Z,4.1
2023-03-16T14:49:00.376Z,4.1
2023-03-16T14:52:00.355Z,4.1
2023-03-16T14:55:02.393Z,4.1
2023-03-16T14:58:00.422Z,4.1
2023-03-16T15:01:00.407Z,4.1
2023-03-16T15:04:00.429Z,4.2
2023-03-16T15:07:00.456Z,4.2
2023-03-16T15:10:00.434Z,4.2
2023-03-16T15:13:00.445Z,4.2
2023-03-16T15:16:00.477Z,4.2
2023-03-16T15:19:00.450Z,4.2
2023-03-16T15:22:00.457Z,4.2
2023-03-16T15:25:00.491Z,4.2
2023-03-16T15:28:00.473Z,4.2
2023-03-16T15:31:00.518Z,4.2
2023-03-16T15:34:00.480Z,4.2
2023-03-16T15:37:00.485Z,4.2
2023-03-16T15:40:00.492Z,4.2
2023-03-16T15:43:00.519Z,4.2
2023-03-16T15:46:00.497Z,4.2
2023-03-16T15:49:00.509Z,4.3
2023-03-16T15:52:00.510Z,4.3
2023-03-16T15:55:00.520Z,4.3
2023-03-16T15:58:00.521Z,4.3
2023-03-16T16:01:00.632Z,4.3
2023-03-16T16:04:00.561Z,4.3
2023-03-16T16:07:00.539Z,4.3
2023-03-16T16:10:00.540Z,4.3
2023-03-16T16:13:00.546Z,4.3
2023-03-16T16:16:00.575Z,4.3
2023-03-16T16:19:00.577Z,4.4
2023-03-16T16:22:00.554Z,4.4
2023-03-16T16:25:00.564Z,4.4
2023-03-16T16:28:00.564Z,4.4
2023-03-16T16:31:00.574Z,4.4
2023-03-16T16:34:00.580Z,4.4
2023-03-16T16:37:00.613Z,4.4
2023-03-16T16:40:00.586Z,4.4
2023-03-16T16:43:00.587Z,4.4
2023-03-16T16:46:00.731Z,4.4
2023-03-16T16:49:00.594Z,4.4
2023-03-16T16:52:00.603Z,4.4
2023-03-16T16:55:00.643Z,4.4
2023-03-16T16:58:00.634Z,4.4
2023-03-16T17:01:00.680Z,4.4
2023-03-16T17:04:00.653Z,4.4
2023-03-16T17:07:00.671Z,4.4
2023-03-16T17:10:00.707Z,4.4
2023-03-16T17:13:00.682Z,4.4
2023-03-16T17:16:00.713Z,4.4
2023-03-16T17:19:00.698Z,4.4
2023-03-16T17:22:00.699Z,4.4
2023-03-16T17:25:00.705Z,4.4
2023-03-16T17:28:00.731Z,4.4
2023-03-16T17:31:00.887Z,4.4
2023-03-16T17:34:00.737Z,4.5
2023-03-16T17:37:00.744Z,4.5
2023-03-16T17:40:00.738Z,4.5
2023-03-16T17:43:00.742Z,4.5
2023-03-16T17:46:00.824Z,4.5
2023-03-16T17:49:00.769Z,4.5
2023-03-16T17:52:00.742Z,4.5
2023-03-16T17:55:00.744Z,4.5
2023-03-16T17:58:00.745Z,4.5
2023-03-16T18:01:00.749Z,4.5
2023-03-16T18:04:00.755Z,4.5
2023-03-16T18:07:00.775Z,4.5
2023-03-16T18:10:00.749Z,4.5
2023-03-16T18:13:00.779Z,4.5
2023-03-16T18:16:00.854Z,4.5
2023-03-16T18:19:00.751Z,4.5
2023-03-16T18:22:00.763Z,4.5
2023-03-16T18:25:00.784Z,4.5
2023-03-16T18:28:00.764Z,4.5
2023-03-16T18:31:00.804Z,4.6
2023-03-16T18:34:00.766Z,4.6
2023-03-16T18:37:00.793Z,4.6
2023-03-16T18:40:00.762Z,4.6
2023-03-16T18:43:00.797Z,4.6
2023-03-16T18:46:00.802Z,4.6
2023-03-16T18:49:00.772Z,4.6
2023-03-16T18:52:00.790Z,4.6
2023-03-16T18:55:00.781Z,4.6
2023-03-16T18:58:00.778Z,4.6
2023-03-16T19:01:00.841Z,4.6
2023-03-16T19:04:00.803Z,4.6
2023-03-16T19:07:00.785Z,4.6
2023-03-16T19:10:00.782Z,4.6
2023-03-16T19:13:00.781Z,4.6
2023-03-16T19:16:00.833Z,4.6
2023-03-16T19:19:00.823Z,4.6
2023-03-16T19:22:00.790Z,4.6
2023-03-16T19:25:00.797Z,4.6
2023-03-16T19:28:00.791Z,4.6
2023-03-16T19:31:00.794Z,4.6
2023-03-16T19:34:00.800Z,4.6
2023-03-16T19:37:00.832Z,4.6
2023-03-16T19:40:00.836Z,4.6
2023-03-16T19:43:00.815Z,4.6
2023-03-16T19:46:00.857Z,4.6
2023-03-16T19:49:00.817Z,4.6
2023-03-16T19:52:00.818Z,4.6
2023-03-16T19:55:00.859Z,4.6
2023-03-16T19:58:00.832Z,4.6
2023-03-16T20:01:00.881Z,4.6
2023-03-16T20:04:00.890Z,4.6
2023-03-16T20:07:00.842Z,4.6
2023-03-16T20:10:00.945Z,4.6
2023-03-16T20:13:00.898Z,4.6
2023-03-16T20:16:00.856Z,4.6
2023-03-16T20:19:00.858Z,4.6
2023-03-16T20:22:00.858Z,4.6
2023-03-16T20:25:00.856Z,4.6
2023-03-16T20:28:00.857Z,4.6
2023-03-16T20:31:00.940Z,4.6
2023-03-16T20:34:00.943Z,4.6
2023-03-16T20:37:00.867Z,4.6
2023-03-16T20:40:00.878Z,4.6
2023-03-16T20:43:00.876Z,4.6
2023-03-16T20:46:00.909Z,4.6
2023-03-16T20:49:00.913Z,4.6
2023-03-16T20:52:00.893Z,4.6
2023-03-16T20:55:00.890Z,4.6
2023-03-16T20:58:00.893Z,4.6
2023-03-16T21:01:00.892Z,4.6
2023-03-16T21:04:00.888Z,4.6
2023-03-16T21:07:00.999Z,4.6
2023-03-16T21:10:00.900Z,4.6
2023-03-16T21:13:00.906Z,4.6
2023-03-16T21:16:00.909Z,4.6
2023-03-16T21:19:00.906Z,4.6
2023-03-16T21:22:00.918Z,4.6
2023-03-16T21:25:00.940Z,4.6
2023-03-16T21:28:00.907Z,4.6
2023-03-16T21:31:01.006Z,4.6
2023-03-16T21:34:00.924Z,4.6
2023-03-16T21:37:00.936Z,4.6
2023-03-16T21:40:01.519Z,4.6
2023-03-16T21:43:00.946Z,4.6
2023-03-16T21:46:00.924Z,4.6
2023-03-16T21:49:01.641Z,4.6
2023-03-16T21:52:00.926Z,4.6
2023-03-16T21:55:00.927Z,4.6
2023-03-16T21:58:00.929Z,4.6
2023-03-16T22:01:00.954Z,4.6
2023-03-16T22:04:00.937Z,4.6
2023-03-16T22:07:00.926Z,4.6
2023-03-16T22:10:00.932Z,4.6
2023-03-16T22:13:00.928Z,4.6
2023-03-16T22:16:00.982Z,4.6
2023-03-16T22:19:00.954Z,4.6
2023-03-16T22:22:00.942Z,4.6
2023-03-16T22:25:00.938Z,4.6
2023-03-16T22:28:00.948Z,4.6
2023-03-16T22:31:00.947Z,4.6
2023-03-16T22:34:00.945Z,4.6
2023-03-16T22:37:00.973Z,4.6
2023-03-16T22:40:00.949Z,4.6
2023-03-16T22:43:00.952Z,4.6
2023-03-16T22:46:01.020Z,4.6
2023-03-16T22:49:00.961Z,4.6
2023-03-16T22:52:00.958Z,4.6
2023-03-16T22:55:00.991Z,4.6
2023-03-16T22:58:00.957Z,4.6
2023-03-16T23:01:00.992Z,4.6
2023-03-16T23:04:00.969Z,4.6
2023-03-16T23:07:00.968Z,4.6
2023-03-16T23:10:00.971Z,4.6
2023-03-16T23:13:00.994Z,4.6
2023-03-16T23:16:00.969Z,4.6
2023-03-16T23:19:00.982Z,4.6
2023-03-16T23:22:00.976Z,4.6
2023-03-16T23:25:00.976Z,4.6
2023-03-16T23:28:00.975Z,4.6
2023-03-16T23:31:01.027Z,4.6
2023-03-16T23:34:00.982Z,4.6
2023-03-16T23:37:01.149Z,4.6
2023-03-16T23:40:00.981Z,4.6
2023-03-16T23:43:00.985Z,4.6
2023-03-16T23:46:01.048Z,4.6
2023-03-16T23:49:01.027Z,4.6
2023-03-16T23:52:00.994Z,4.6
2023-03-16T23:55:00.985Z,4.6
2023-03-16T23:58:00.989Z,4.6
